sensor_id;sensor_type;location;lat;lon;timestamp;pressure;altitude;pressure_sealevel;temperature;humidity
83492;BME280;73661;56.120;12.302;2024-02-21T00:00:20;101167.97;;;12.19;61.99
83492;BME280;73661;56.120;12.302;2024-02-21T00:02:46;101170.72;;;12.42;60.23
83492;BME280;73661;56.120;12.302;2024-02-21T00:05:12;101164.84;;;11.61;63.08
83492;BME280;73661;56.120;12.302;2024-02-21T00:07:37;101157.31;;;11.92;62.76
83492;BME280;73661;56.120;12.302;2024-02-21T00:10:03;101157.00;;;11.60;63.23
83492;BME280;73661;56.120;12.302;2024-02-21T00:12:29;101155.34;;;11.71;62.67
83492;BME280;73661;56.120;12.302;2024-02-21T00:14:55;101145.94;;;11.90;63.70
83492;BME280;73661;56.120;12.302;2024-02-21T00:17:20;101139.81;;;11.85;62.63
83492;BME280;73661;56.120;12.302;2024-02-21T00:19:46;101144.22;;;11.92;62.04
83492;BME280;73661;56.120;12.302;2024-02-21T00:22:12;101138.13;;;11.94;62.45
83492;BME280;73661;56.120;12.302;2024-02-21T00:24:37;101137.53;;;12.35;61.29
83492;BME280;73661;56.120;12.302;2024-02-21T00:27:03;101127.06;;;12.37;61.09
83492;BME280;73661;56.120;12.302;2024-02-21T00:29:29;101118.19;;;12.13;61.93
83492;BME280;73661;56.120;12.302;2024-02-21T00:31:55;101113.66;;;11.85;62.68
83492;BME280;73661;56.120;12.302;2024-02-21T00:34:20;101120.22;;;12.60;60.09
83492;BME280;73661;56.120;12.302;2024-02-21T00:36:46;101113.09;;;12.32;62.08
83492;BME280;73661;56.120;12.302;2024-02-21T00:39:12;101107.81;;;12.25;62.50
83492;BME280;73661;56.120;12.302;2024-02-21T00:41:37;101101.06;;;12.79;60.61
83492;BME280;73661;56.120;12.302;2024-02-21T00:44:03;101100.72;;;12.06;62.51
83492;BME280;73661;56.120;12.302;2024-02-21T00:46:31;101084.41;;;12.58;61.17
83492;BME280;73661;56.120;12.302;2024-02-21T00:48:56;101096.75;;;11.48;64.24
83492;BME280;73661;56.120;12.302;2024-02-21T00:51:22;101092.81;;;12.00;63.08
83492;BME280;73661;56.120;12.302;2024-02-21T00:53:48;101086.59;;;11.81;63.08
83492;BME280;73661;56.120;12.302;2024-02-21T00:56:13;101074.44;;;11.88;63.79
83492;BME280;73661;56.120;12.302;2024-02-21T00:58:39;101064.91;;;12.04;62.13
83492;BME280;73661;56.120;12.302;2024-02-21T01:01:05;101058.09;;;12.25;61.66
83492;BME280;73661;56.120;12.302;2024-02-21T01:03:30;101056.16;;;11.95;62.27
83492;BME280;73661;56.120;12.302;2024-02-21T01:05:56;101052.06;;;12.45;61.93
83492;BME280;73661;56.120;12.302;2024-02-21T01:08:22;101035.47;;;12.47;61.93
83492;BME280;73661;56.120;12.302;2024-02-21T01:10:47;101025.88;;;12.45;60.43
83492;BME280;73661;56.120;12.302;2024-02-21T01:13:13;101034.31;;;11.89;62.99
83492;BME280;73661;56.120;12.302;2024-02-21T01:15:39;101015.25;;;12.08;61.81
83492;BME280;73661;56.120;12.302;2024-02-21T01:18:05;101020.38;;;11.90;62.70
83492;BME280;73661;56.120;12.302;2024-02-21T01:20:31;101014.53;;;12.49;61.75
83492;BME280;73661;56.120;12.302;2024-02-21T01:22:56;100999.72;;;12.63;60.89
83492;BME280;73661;56.120;12.302;2024-02-21T01:25:23;101012.91;;;13.01;60.81
83492;BME280;73661;56.120;12.302;2024-02-21T01:27:48;100991.66;;;11.97;62.48
83492;BME280;73661;56.120;12.302;2024-02-21T01:30:14;100988.28;;;12.29;62.30
83492;BME280;73661;56.120;12.302;2024-02-21T01:32:40;100974.44;;;12.73;61.21
83492;BME280;73661;56.120;12.302;2024-02-21T01:35:07;100972.50;;;12.09;62.40
83492;BME280;73661;56.120;12.302;2024-02-21T01:37:33;100963.69;;;11.86;62.87
83492;BME280;73661;56.120;12.302;2024-02-21T01:39:59;100951.50;;;11.94;63.05
83492;BME280;73661;56.120;12.302;2024-02-21T01:42:25;100958.59;;;12.19;62.89
83492;BME280;73661;56.120;12.302;2024-02-21T01:44:50;100954.19;;;12.06;63.76
83492;BME280;73661;56.120;12.302;2024-02-21T01:47:16;100955.06;;;12.07;63.14
83492;BME280;73661;56.120;12.302;2024-02-21T01:49:43;100942.09;;;12.55;61.44
83492;BME280;73661;56.120;12.302;2024-02-21T01:52:10;100938.63;;;12.52;61.68
83492;BME280;73661;56.120;12.302;2024-02-21T01:54:37;100930.69;;;12.23;62.01
83492;BME280;73661;56.120;12.302;2024-02-21T01:57:03;100930.75;;;12.49;61.07
83492;BME280;73661;56.120;12.302;2024-02-21T01:59:29;100914.22;;;12.80;60.48
83492;BME280;73661;56.120;12.302;2024-02-21T02:01:56;100912.47;;;13.04;60.15
83492;BME280;73661;56.120;12.302;2024-02-21T02:04:22;100901.09;;;12.82;60.93
83492;BME280;73661;56.120;12.302;2024-02-21T02:06:49;100897.53;;;12.11;62.14
83492;BME280;73661;56.120;12.302;2024-02-21T02:09:16;100887.69;;;11.61;63.19
83492;BME280;73661;56.120;12.302;2024-02-21T02:11:43;100890.59;;;12.36;61.59
83492;BME280;73661;56.120;12.302;2024-02-21T02:14:08;100877.50;;;12.27;62.21
83492;BME280;73661;56.120;12.302;2024-02-21T02:16:34;100863.22;;;11.50;64.30
83492;BME280;73661;56.120;12.302;2024-02-21T02:19:00;100858.25;;;12.14;62.57
83492;BME280;73661;56.120;12.302;2024-02-21T02:21:39;100859.09;;;12.03;62.90
83492;BME280;73661;56.120;12.302;2024-02-21T02:24:07;100845.13;;;11.93;62.41
83492;BME280;73661;56.120;12.302;2024-02-21T02:26:33;100845.09;;;11.90;63.56
83492;BME280;73661;56.120;12.302;2024-02-21T02:29:01;100825.16;;;12.41;61.84
83492;BME280;73661;56.120;12.302;2024-02-21T02:31:27;100825.97;;;12.09;63.03
83492;BME280;73661;56.120;12.302;2024-02-21T02:33:53;100803.31;;;12.81;60.33
83492;BME280;73661;56.120;12.302;2024-02-21T02:36:18;100815.38;;;11.66;63.92
83492;BME280;73661;56.120;12.302;2024-02-21T02:38:44;100800.56;;;11.67;63.41
83492;BME280;73661;56.120;12.302;2024-02-21T02:41:10;100790.25;;;12.45;61.98
83492;BME280;73661;56.120;12.302;2024-02-21T02:43:36;100784.09;;;12.02;63.23
83492;BME280;73661;56.120;12.302;2024-02-21T02:46:02;100777.13;;;11.99;62.96
83492;BME280;73661;56.120;12.302;2024-02-21T02:48:29;100785.84;;;11.96;62.78
83492;BME280;73661;56.120;12.302;2024-02-21T02:50:55;100769.19;;;13.03;60.37
83492;BME280;73661;56.120;12.302;2024-02-21T02:53:21;100784.13;;;12.12;62.59
83492;BME280;73661;56.120;12.302;2024-02-21T02:55:46;100773.63;;;11.86;64.50
83492;BME280;73661;56.120;12.302;2024-02-21T02:58:12;100773.44;;;11.36;64.89
83492;BME280;73661;56.120;12.302;2024-02-21T03:00:37;100792.72;;;11.67;64.85
83492;BME280;73661;56.120;12.302;2024-02-21T03:03:05;100783.13;;;11.77;64.95
83492;BME280;73661;56.120;12.302;2024-02-21T03:05:30;100777.03;;;11.67;65.11
83492;BME280;73661;56.120;12.302;2024-02-21T03:07:56;100769.13;;;11.50;65.43
83492;BME280;73661;56.120;12.302;2024-02-21T03:10:22;100758.84;;;12.14;63.37
83492;BME280;73661;56.120;12.302;2024-02-21T03:12:48;100759.50;;;11.41;65.67
83492;BME280;73661;56.120;12.302;2024-02-21T03:15:13;100761.44;;;12.08;64.99
83492;BME280;73661;56.120;12.302;2024-02-21T03:17:40;100750.72;;;11.21;66.46
83492;BME280;73661;56.120;12.302;2024-02-21T03:20:06;100750.09;;;12.09;64.35
83492;BME280;73661;56.120;12.302;2024-02-21T03:22:36;100744.66;;;11.30;66.13
83492;BME280;73661;56.120;12.302;2024-02-21T03:25:02;100752.59;;;11.54;66.01
83492;BME280;73661;56.120;12.302;2024-02-21T03:27:28;100745.69;;;11.78;64.97
83492;BME280;73661;56.120;12.302;2024-02-21T03:29:53;100746.53;;;11.64;66.52
83492;BME280;73661;56.120;12.302;2024-02-21T03:32:19;100737.69;;;11.29;66.70
83492;BME280;73661;56.120;12.302;2024-02-21T03:34:45;100732.41;;;11.12;67.68
83492;BME280;73661;56.120;12.302;2024-02-21T03:37:11;100731.66;;;11.45;67.18
83492;BME280;73661;56.120;12.302;2024-02-21T03:39:37;100727.25;;;11.36;67.80
83492;BME280;73661;56.120;12.302;2024-02-21T03:42:03;100725.63;;;11.80;65.83
83492;BME280;73661;56.120;12.302;2024-02-21T03:44:33;100727.28;;;11.50;66.55
83492;BME280;73661;56.120;12.302;2024-02-21T03:46:59;100730.03;;;11.85;65.26
83492;BME280;73661;56.120;12.302;2024-02-21T03:49:26;100723.88;;;11.76;66.17
83492;BME280;73661;56.120;12.302;2024-02-21T03:51:52;100725.69;;;12.03;65.23
83492;BME280;73661;56.120;12.302;2024-02-21T03:54:18;100724.81;;;12.07;64.98
83492;BME280;73661;56.120;12.302;2024-02-21T03:56:44;100715.22;;;11.86;66.00
83492;BME280;73661;56.120;12.302;2024-02-21T03:59:09;100721.19;;;11.48;67.18
83492;BME280;73661;56.120;12.302;2024-02-21T04:01:35;100700.38;;;12.17;66.00
83492;BME280;73661;56.120;12.302;2024-02-21T04:04:01;100704.72;;;12.42;64.57
83492;BME280;73661;56.120;12.302;2024-02-21T04:06:28;100705.66;;;12.11;65.08
83492;BME280;73661;56.120;12.302;2024-02-21T04:08:53;100719.59;;;11.84;65.65
83492;BME280;73661;56.120;12.302;2024-02-21T04:11:19;100721.25;;;11.57;66.92
83492;BME280;73661;56.120;12.302;2024-02-21T04:13:45;100707.34;;;11.96;65.88
83492;BME280;73661;56.120;12.302;2024-02-21T04:16:14;100715.22;;;11.95;66.28
83492;BME280;73661;56.120;12.302;2024-02-21T04:18:41;100718.53;;;11.24;67.46
83492;BME280;73661;56.120;12.302;2024-02-21T04:21:08;100729.97;;;11.68;66.51
83492;BME280;73661;56.120;12.302;2024-02-21T04:23:34;100736.97;;;11.79;66.42
83492;BME280;73661;56.120;12.302;2024-02-21T04:26:00;100731.78;;;11.95;65.64
83492;BME280;73661;56.120;12.302;2024-02-21T04:28:25;100711.63;;;11.47;67.20
83492;BME280;73661;56.120;12.302;2024-02-21T04:30:51;100702.94;;;11.51;66.13
83492;BME280;73661;56.120;12.302;2024-02-21T04:33:17;100689.03;;;12.10;65.65
83492;BME280;73661;56.120;12.302;2024-02-21T04:35:42;100681.22;;;12.12;64.42
83492;BME280;73661;56.120;12.302;2024-02-21T04:38:09;100689.84;;;11.51;65.89
83492;BME280;73661;56.120;12.302;2024-02-21T04:40:34;100693.38;;;12.36;63.77
83492;BME280;73661;56.120;12.302;2024-02-21T04:43:00;100692.50;;;12.52;62.48
83492;BME280;73661;56.120;12.302;2024-02-21T04:45:26;100685.53;;;12.36;63.45
83492;BME280;73661;56.120;12.302;2024-02-21T04:47:51;100692.53;;;12.15;63.16
83492;BME280;73661;56.120;12.302;2024-02-21T04:50:17;100694.25;;;11.70;64.66
83492;BME280;73661;56.120;12.302;2024-02-21T04:52:43;100696.84;;;11.75;64.56
83492;BME280;73661;56.120;12.302;2024-02-21T04:55:09;100674.16;;;11.45;64.49
83492;BME280;73661;56.120;12.302;2024-02-21T04:57:34;100669.78;;;11.33;65.58
83492;BME280;73661;56.120;12.302;2024-02-21T05:00:00;100675.88;;;11.32;65.39
83492;BME280;73661;56.120;12.302;2024-02-21T05:02:26;100678.56;;;11.80;63.41
83492;BME280;73661;56.120;12.302;2024-02-21T05:04:52;100660.28;;;12.19;62.06
83492;BME280;73661;56.120;12.302;2024-02-21T05:07:19;100657.47;;;11.00;64.77
83492;BME280;73661;56.120;12.302;2024-02-21T05:09:45;100661.94;;;11.32;65.16
83492;BME280;73661;56.120;12.302;2024-02-21T05:12:11;100654.13;;;11.59;63.38
83492;BME280;73661;56.120;12.302;2024-02-21T05:14:37;100655.00;;;11.55;62.95
83492;BME280;73661;56.120;12.302;2024-02-21T05:17:04;100661.94;;;11.41;63.53
83492;BME280;73661;56.120;12.302;2024-02-21T05:19:30;100662.88;;;11.64;63.13
83492;BME280;73661;56.120;12.302;2024-02-21T05:21:55;100660.19;;;11.34;62.74
83492;BME280;73661;56.120;12.302;2024-02-21T05:24:21;100654.13;;;12.23;60.81
83492;BME280;73661;56.120;12.302;2024-02-21T05:26:47;100657.66;;;11.70;61.22
83492;BME280;73661;56.120;12.302;2024-02-21T05:29:13;100668.09;;;11.77;62.00
83492;BME280;73661;56.120;12.302;2024-02-21T05:34:17;100648.00;;;11.34;62.72
83492;BME280;73661;56.120;12.302;2024-02-21T05:36:42;100642.78;;;11.40;62.40
83492;BME280;73661;56.120;12.302;2024-02-21T05:39:08;100654.88;;;11.08;64.50
83492;BME280;73661;56.120;12.302;2024-02-21T05:41:34;100647.16;;;11.58;62.58
83492;BME280;73661;56.120;12.302;2024-02-21T05:44:00;100648.94;;;12.07;61.11
83492;BME280;73661;56.120;12.302;2024-02-21T05:46:25;100654.94;;;11.29;62.33
83492;BME280;73661;56.120;12.302;2024-02-21T05:48:51;100646.19;;;11.06;63.04
83492;BME280;73661;56.120;12.302;2024-02-21T05:51:17;100653.16;;;11.08;63.60
83492;BME280;73661;56.120;12.302;2024-02-21T05:53:42;100654.16;;;11.65;61.80
83492;BME280;73661;56.120;12.302;2024-02-21T05:56:12;100649.75;;;11.57;62.71
83492;BME280;73661;56.120;12.302;2024-02-21T05:58:38;100647.94;;;11.16;62.77
83492;BME280;73661;56.120;12.302;2024-02-21T06:01:04;100645.41;;;11.40;63.38
83492;BME280;73661;56.120;12.302;2024-02-21T06:03:33;100651.53;;;11.61;62.77
83492;BME280;73661;56.120;12.302;2024-02-21T06:05:59;100653.16;;;11.05;63.81
83492;BME280;73661;56.120;12.302;2024-02-21T06:08:25;100651.47;;;11.27;63.39
83492;BME280;73661;56.120;12.302;2024-02-21T06:10:51;100646.22;;;11.27;62.78
83492;BME280;73661;56.120;12.302;2024-02-21T06:13:26;100641.78;;;10.91;63.60
83492;BME280;73661;56.120;12.302;2024-02-21T06:15:53;100657.56;;;11.34;63.67
83492;BME280;73661;56.120;12.302;2024-02-21T06:18:20;100649.59;;;10.89;63.95
83492;BME280;73661;56.120;12.302;2024-02-21T06:20:46;100658.38;;;11.07;63.17
83492;BME280;73661;56.120;12.302;2024-02-21T06:23:13;100649.75;;;11.31;62.21
83492;BME280;73661;56.120;12.302;2024-02-21T06:25:39;100663.69;;;11.46;61.21
83492;BME280;73661;56.120;12.302;2024-02-21T06:28:05;100663.69;;;11.33;61.37
83492;BME280;73661;56.120;12.302;2024-02-21T06:30:31;100649.31;;;10.34;64.34
83492;BME280;73661;56.120;12.302;2024-02-21T06:32:57;100669.59;;;10.78;63.62
83492;BME280;73661;56.120;12.302;2024-02-21T06:35:23;100667.19;;;11.56;61.50
83492;BME280;73661;56.120;12.302;2024-02-21T06:37:52;100662.72;;;11.09;62.07
83492;BME280;73661;56.120;12.302;2024-02-21T06:40:20;100653.09;;;10.93;62.01
83492;BME280;73661;56.120;12.302;2024-02-21T06:42:46;100662.69;;;10.97;61.72
83492;BME280;73661;56.120;12.302;2024-02-21T06:45:12;100648.41;;;10.28;63.61
83492;BME280;73661;56.120;12.302;2024-02-21T06:47:37;100657.16;;;10.33;63.51
83492;BME280;73661;56.120;12.302;2024-02-21T06:50:03;100658.28;;;10.85;63.70
83492;BME280;73661;56.120;12.302;2024-02-21T06:52:29;100650.31;;;10.56;63.04
83492;BME280;73661;56.120;12.302;2024-02-21T06:54:57;100654.78;;;10.80;62.47
83492;BME280;73661;56.120;12.302;2024-02-21T06:57:22;100641.59;;;10.53;62.04
83492;BME280;73661;56.120;12.302;2024-02-21T06:59:49;100637.25;;;10.56;61.52
83492;BME280;73661;56.120;12.302;2024-02-21T07:02:14;100639.00;;;10.51;61.08
83492;BME280;73661;56.120;12.302;2024-02-21T07:04:40;100642.56;;;10.72;61.47
83492;BME280;73661;56.120;12.302;2024-02-21T07:07:06;100647.88;;;10.91;60.60
83492;BME280;73661;56.120;12.302;2024-02-21T07:09:31;100646.81;;;10.51;61.68
83492;BME280;73661;56.120;12.302;2024-02-21T07:12:00;100643.88;;;10.05;63.14
83492;BME280;73661;56.120;12.302;2024-02-21T07:14:28;100652.19;;;10.86;61.48
83492;BME280;73661;56.120;12.302;2024-02-21T07:16:54;100646.84;;;10.57;61.56
83492;BME280;73661;56.120;12.302;2024-02-21T07:19:20;100663.66;;;11.24;60.68
83492;BME280;73661;56.120;12.302;2024-02-21T07:21:46;100653.22;;;11.36;59.38
83492;BME280;73661;56.120;12.302;2024-02-21T07:24:11;100659.38;;;11.59;58.95
83492;BME280;73661;56.120;12.302;2024-02-21T07:26:41;100660.97;;;10.99;60.10
83492;BME280;73661;56.120;12.302;2024-02-21T07:29:07;100659.16;;;10.89;60.94
83492;BME280;73661;56.120;12.302;2024-02-21T07:31:42;100651.38;;;11.00;58.91
83492;BME280;73661;56.120;12.302;2024-02-21T07:34:09;100668.84;;;11.11;59.54
83492;BME280;73661;56.120;12.302;2024-02-21T07:36:35;100673.13;;;10.91;59.80
83492;BME280;73661;56.120;12.302;2024-02-21T07:39:00;100657.97;;;10.27;61.05
83492;BME280;73661;56.120;12.302;2024-02-21T07:41:26;100655.13;;;10.01;62.19
83492;BME280;73661;56.120;12.302;2024-02-21T07:43:53;100652.63;;;10.10;61.26
83492;BME280;73661;56.120;12.302;2024-02-21T07:46:19;100646.72;;;10.36;61.58
83492;BME280;73661;56.120;12.302;2024-02-21T07:48:45;100651.38;;;9.66;62.61
83492;BME280;73661;56.120;12.302;2024-02-21T07:51:12;100659.53;;;9.14;64.03
83492;BME280;73661;56.120;12.302;2024-02-21T07:53:39;100650.94;;;10.20;61.86
83492;BME280;73661;56.120;12.302;2024-02-21T07:56:10;100656.72;;;9.81;62.62
83492;BME280;73661;56.120;12.302;2024-02-21T07:58:36;100667.47;;;10.21;61.40
83492;BME280;73661;56.120;12.302;2024-02-21T08:01:02;100638.44;;;9.76;62.55
83492;BME280;73661;56.120;12.302;2024-02-21T08:03:28;100654.63;;;10.50;62.30
83492;BME280;73661;56.120;12.302;2024-02-21T08:05:53;100664.69;;;9.98;62.44
83492;BME280;73661;56.120;12.302;2024-02-21T08:08:19;100657.75;;;9.97;63.52
83492;BME280;73661;56.120;12.302;2024-02-21T08:10:50;100653.44;;;10.06;63.53
83492;BME280;73661;56.120;12.302;2024-02-21T08:13:16;100654.97;;;9.78;64.51
83492;BME280;73661;56.120;12.302;2024-02-21T08:15:42;100665.50;;;9.92;64.50
83492;BME280;73661;56.120;12.302;2024-02-21T08:18:08;100654.56;;;10.42;63.63
83492;BME280;73661;56.120;12.302;2024-02-21T08:20:34;100658.91;;;10.37;63.04
83492;BME280;73661;56.120;12.302;2024-02-21T08:23:00;100656.81;;;9.93;64.47
83492;BME280;73661;56.120;12.302;2024-02-21T08:25:26;100665.06;;;10.45;63.80
83492;BME280;73661;56.120;12.302;2024-02-21T08:27:58;100665.44;;;9.83;65.51
83492;BME280;73661;56.120;12.302;2024-02-21T08:30:24;100662.19;;;10.15;64.91
83492;BME280;73661;56.120;12.302;2024-02-21T08:32:50;100686.47;;;10.04;65.11
83492;BME280;73661;56.120;12.302;2024-02-21T08:35:16;100671.53;;;9.87;66.37
83492;BME280;73661;56.120;12.302;2024-02-21T08:37:46;100670.06;;;10.21;64.45
83492;BME280;73661;56.120;12.302;2024-02-21T08:40:13;100665.84;;;10.32;63.97
83492;BME280;73661;56.120;12.302;2024-02-21T08:42:43;100666.19;;;9.70;65.90
83492;BME280;73661;56.120;12.302;2024-02-21T08:45:09;100678.84;;;10.26;64.73
83492;BME280;73661;56.120;12.302;2024-02-21T08:47:35;100678.31;;;9.66;65.35
83492;BME280;73661;56.120;12.302;2024-02-21T08:50:04;100678.66;;;10.07;64.82
83492;BME280;73661;56.120;12.302;2024-02-21T08:52:31;100674.88;;;10.92;62.11
83492;BME280;73661;56.120;12.302;2024-02-21T08:54:57;100670.19;;;10.36;63.70
83492;BME280;73661;56.120;12.302;2024-02-21T08:57:23;100686.72;;;10.35;63.40
83492;BME280;73661;56.120;12.302;2024-02-21T08:59:48;100689.44;;;10.56;63.17
83492;BME280;73661;56.120;12.302;2024-02-21T09:02:14;100692.28;;;9.73;65.29
83492;BME280;73661;56.120;12.302;2024-02-21T09:04:43;100687.31;;;10.00;64.06
83492;BME280;73661;56.120;12.302;2024-02-21T09:07:10;100687.00;;;9.64;65.38
83492;BME280;73661;56.120;12.302;2024-02-21T09:09:36;100693.94;;;9.66;65.96
83492;BME280;73661;56.120;12.302;2024-02-21T09:12:05;100691.94;;;10.32;63.12
83492;BME280;73661;56.120;12.302;2024-02-21T09:14:32;100691.34;;;9.69;65.68
83492;BME280;73661;56.120;12.302;2024-02-21T09:16:58;100695.69;;;9.64;66.50
83492;BME280;73661;56.120;12.302;2024-02-21T09:19:24;100702.03;;;9.95;64.56
83492;BME280;73661;56.120;12.302;2024-02-21T09:21:49;100706.13;;;9.69;65.81
83492;BME280;73661;56.120;12.302;2024-02-21T09:24:15;100706.38;;;9.95;65.13
83492;BME280;73661;56.120;12.302;2024-02-21T09:26:41;100707.91;;;9.71;66.50
83492;BME280;73661;56.120;12.302;2024-02-21T09:29:06;100717.81;;;9.24;66.61
83492;BME280;73661;56.120;12.302;2024-02-21T09:31:33;100695.81;;;9.78;65.41
83492;BME280;73661;56.120;12.302;2024-02-21T09:33:59;100718.47;;;9.05;66.99
83492;BME280;73661;56.120;12.302;2024-02-21T09:36:24;100719.56;;;9.23;67.14
83492;BME280;73661;56.120;12.302;2024-02-21T09:38:50;100714.25;;;9.99;64.82
83492;BME280;73661;56.120;12.302;2024-02-21T09:41:18;100721.19;;;9.97;65.14
83492;BME280;73661;56.120;12.302;2024-02-21T09:43:44;100725.28;;;9.74;66.35
83492;BME280;73661;56.120;12.302;2024-02-21T09:46:18;100735.72;;;9.72;65.72
83492;BME280;73661;56.120;12.302;2024-02-21T09:51:36;100743.09;;;9.34;66.62
83492;BME280;73661;56.120;12.302;2024-02-21T09:54:04;100743.53;;;9.74;66.15
83492;BME280;73661;56.120;12.302;2024-02-21T09:56:30;100740.75;;;8.84;68.01
83492;BME280;73661;56.120;12.302;2024-02-21T09:58:56;100751.25;;;8.92;68.26
83492;BME280;73661;56.120;12.302;2024-02-21T10:01:23;100749.94;;;10.08;65.21
83492;BME280;73661;56.120;12.302;2024-02-21T10:03:48;100759.31;;;9.88;65.40
83492;BME280;73661;56.120;12.302;2024-02-21T10:06:15;100746.28;;;9.88;65.34
83492;BME280;73661;56.120;12.302;2024-02-21T10:08:41;100758.19;;;9.61;66.30
83492;BME280;73661;56.120;12.302;2024-02-21T10:11:06;100762.94;;;8.61;68.60
83492;BME280;73661;56.120;12.302;2024-02-21T10:13:35;100755.16;;;10.05;65.63
83492;BME280;73661;56.120;12.302;2024-02-21T10:16:05;100758.44;;;9.84;66.99
83492;BME280;73661;56.120;12.302;2024-02-21T10:18:33;100755.03;;;9.96;65.65
83492;BME280;73661;56.120;12.302;2024-02-21T10:21:06;100761.72;;;9.69;65.89
83492;BME280;73661;56.120;12.302;2024-02-21T10:23:47;100757.44;;;10.72;65.00
83492;BME280;73661;56.120;12.302;2024-02-21T10:26:15;100750.69;;;9.96;65.72
83492;BME280;73661;56.120;12.302;2024-02-21T10:28:41;100747.16;;;9.88;64.96
83492;BME280;73661;56.120;12.302;2024-02-21T10:31:08;100765.97;;;10.49;64.34
83492;BME280;73661;56.120;12.302;2024-02-21T10:33:35;100770.50;;;10.70;64.83
83492;BME280;73661;56.120;12.302;2024-02-21T10:36:13;100773.28;;;10.98;63.91
83492;BME280;73661;56.120;12.302;2024-02-21T10:38:39;100768.75;;;10.72;64.23
83492;BME280;73661;56.120;12.302;2024-02-21T10:41:06;100773.31;;;11.04;63.06
83492;BME280;73661;56.120;12.302;2024-02-21T10:43:39;100772.44;;;11.09;62.19
83492;BME280;73661;56.120;12.302;2024-02-21T10:46:08;100769.88;;;11.18;62.90
83492;BME280;73661;56.120;12.302;2024-02-21T10:48:43;100771.50;;;10.94;62.91
83492;BME280;73661;56.120;12.302;2024-02-21T10:54:11;100782.34;;;11.87;61.17
83492;BME280;73661;56.120;12.302;2024-02-21T10:56:32;100775.00;;;11.00;62.28
83492;BME280;73661;56.120;12.302;2024-02-21T10:59:02;100783.28;;;12.44;58.87
83492;BME280;73661;56.120;12.302;2024-02-21T11:01:31;100780.47;;;11.51;59.36
83492;BME280;73661;56.120;12.302;2024-02-21T11:04:01;100775.41;;;12.58;58.83
83492;BME280;73661;56.120;12.302;2024-02-21T11:06:29;100791.91;;;11.83;60.81
83492;BME280;73661;56.120;12.302;2024-02-21T11:09:07;100784.88;;;11.74;60.22
83492;BME280;73661;56.120;12.302;2024-02-21T11:11:34;100786.03;;;10.55;62.24
83492;BME280;73661;56.120;12.302;2024-02-21T11:14:08;100772.38;;;10.94;63.04
83492;BME280;73661;56.120;12.302;2024-02-21T11:16:39;100784.84;;;11.58;60.99
83492;BME280;73661;56.120;12.302;2024-02-21T11:19:09;100782.16;;;11.38;60.19
83492;BME280;73661;56.120;12.302;2024-02-21T11:21:37;100784.97;;;11.96;60.23
83492;BME280;73661;56.120;12.302;2024-02-21T11:24:04;100777.16;;;12.46;59.22
83492;BME280;73661;56.120;12.302;2024-02-21T11:26:31;100778.91;;;12.14;59.00
83492;BME280;73661;56.120;12.302;2024-02-21T11:28:58;100779.78;;;12.33;59.50
83492;BME280;73661;56.120;12.302;2024-02-21T11:31:25;100769.28;;;11.99;58.83
83492;BME280;73661;56.120;12.302;2024-02-21T11:33:53;100763.09;;;11.68;60.88
83492;BME280;73661;56.120;12.302;2024-02-21T11:36:26;100758.81;;;12.08;59.77
83492;BME280;73661;56.120;12.302;2024-02-21T11:38:52;100754.94;;;10.96;60.91
83492;BME280;73661;56.120;12.302;2024-02-21T11:41:21;100750.09;;;12.49;58.95
83492;BME280;73661;56.120;12.302;2024-02-21T11:43:48;100752.56;;;13.22;57.35
83492;BME280;73661;56.120;12.302;2024-02-21T11:46:16;100760.38;;;13.41;57.16
83492;BME280;73661;56.120;12.302;2024-02-21T11:48:42;100754.25;;;13.42;57.55
83492;BME280;73661;56.120;12.302;2024-02-21T11:51:24;100748.09;;;13.43;56.93
83492;BME280;73661;56.120;12.302;2024-02-21T11:53:52;100761.28;;;13.29;56.54
83492;BME280;73661;56.120;12.302;2024-02-21T11:56:18;100751.84;;;14.38;55.12
83492;BME280;73661;56.120;12.302;2024-02-21T11:58:46;100756.97;;;13.02;56.59
83492;BME280;73661;56.120;12.302;2024-02-21T12:01:13;100762.25;;;12.93;56.57
83492;BME280;73661;56.120;12.302;2024-02-21T12:03:39;100758.81;;;12.66;57.25
83492;BME280;73661;56.120;12.302;2024-02-21T12:06:07;100766.47;;;13.46;56.35
83492;BME280;73661;56.120;12.302;2024-02-21T12:08:46;100764.69;;;13.48;55.50
83492;BME280;73661;56.120;12.302;2024-02-21T12:11:22;100769.75;;;13.84;55.19
83492;BME280;73661;56.120;12.302;2024-02-21T12:13:59;100759.56;;;13.19;55.84
83492;BME280;73661;56.120;12.302;2024-02-21T12:16:27;100768.31;;;13.25;54.59
83492;BME280;73661;56.120;12.302;2024-02-21T12:18:55;100776.03;;;13.50;55.93
83492;BME280;73661;56.120;12.302;2024-02-21T12:21:25;100773.50;;;13.33;55.61
83492;BME280;73661;56.120;12.302;2024-02-21T12:23:54;100772.44;;;13.69;55.29
83492;BME280;73661;56.120;12.302;2024-02-21T12:26:20;100770.97;;;14.56;53.87
83492;BME280;73661;56.120;12.302;2024-02-21T12:28:45;100775.19;;;13.52;54.87
83492;BME280;73661;56.120;12.302;2024-02-21T12:31:12;100776.16;;;13.27;56.18
83492;BME280;73661;56.120;12.302;2024-02-21T12:33:38;100752.22;;;13.93;54.45
83492;BME280;73661;56.120;12.302;2024-02-21T12:36:04;100764.63;;;13.57;54.90
83492;BME280;73661;56.120;12.302;2024-02-21T12:38:29;100756.78;;;13.60;54.12
83492;BME280;73661;56.120;12.302;2024-02-21T12:40:55;100751.00;;;12.37;57.28
83492;BME280;73661;56.120;12.302;2024-02-21T12:43:23;100754.75;;;14.05;53.68
83492;BME280;73661;56.120;12.302;2024-02-21T12:45:49;100750.13;;;12.46;55.70